sensor_id;sensor_type;location;lat;lon;timestamp;P1;durP1;ratioP1;P2;durP2;ratioP2
19358;SDS011;9815;52.334;20.890;2023-07-20T00:02:39;5.43;;;3.37;;
19358;SDS011;9815;52.334;20.890;2023-07-20T00:05:08;7.80;;;3.10;;
19358;SDS011;9815;52.334;20.890;2023-07-20T00:07:36;4.03;;;3.03;;
19358;SDS011;9815;52.334;20.890;2023-07-20T00:10:05;9.13;;;3.40;;
19358;SDS011;9815;52.334;20.890;2023-07-20T00:12:34;4.23;;;3.20;;
19358;SDS011;9815;52.334;20.890;2023-07-20T00:15:02;4.70;;;3.03;;
19358;SDS011;9815;52.334;20.890;2023-07-20T00:17:31;6.07;;;3.37;;
19358;SDS011;9815;52.334;20.890;2023-07-20T00:20:01;5.90;;;3.17;;
19358;SDS011;9815;52.334;20.890;2023-07-20T00:22:31;9.43;;;3.80;;
19358;SDS011;9815;52.334;20.890;2023-07-20T00:24:59;8.57;;;3.57;;
19358;SDS011;9815;52.334;20.890;2023-07-20T00:27:28;7.23;;;3.70;;
19358;SDS011;9815;52.334;20.890;2023-07-20T00:29:57;9.73;;;3.60;;
19358;SDS011;9815;52.334;20.890;2023-07-20T00:32:25;9.17;;;3.60;;
19358;SDS011;9815;52.334;20.890;2023-07-20T00:34:56;8.30;;;3.90;;
19358;SDS011;9815;52.334;20.890;2023-07-20T00:37:25;8.40;;;3.70;;
19358;SDS011;9815;52.334;20.890;2023-07-20T00:39:54;6.77;;;3.87;;
19358;SDS011;9815;52.334;20.890;2023-07-20T00:42:24;6.97;;;3.57;;
19358;SDS011;9815;52.334;20.890;2023-07-20T00:44:53;10.30;;;3.90;;
19358;SDS011;9815;52.334;20.890;2023-07-20T00:47:21;10.10;;;3.60;;
19358;SDS011;9815;52.334;20.890;2023-07-20T00:49:49;7.53;;;3.93;;
19358;SDS011;9815;52.334;20.890;2023-07-20T00:52:19;8.53;;;3.90;;
19358;SDS011;9815;52.334;20.890;2023-07-20T00:54:52;10.03;;;4.20;;
19358;SDS011;9815;52.334;20.890;2023-07-20T00:57:22;8.50;;;4.00;;
19358;SDS011;9815;52.334;20.890;2023-07-20T00:59:52;8.93;;;4.30;;
19358;SDS011;9815;52.334;20.890;2023-07-20T01:02:23;8.10;;;4.07;;
19358;SDS011;9815;52.334;20.890;2023-07-20T01:04:51;9.20;;;4.30;;
19358;SDS011;9815;52.334;20.890;2023-07-20T01:07:24;9.40;;;4.13;;
19358;SDS011;9815;52.334;20.890;2023-07-20T01:10:01;11.43;;;4.63;;
19358;SDS011;9815;52.334;20.890;2023-07-20T01:12:35;9.00;;;4.60;;
19358;SDS011;9815;52.334;20.890;2023-07-20T01:15:09;7.40;;;4.40;;
19358;SDS011;9815;52.334;20.890;2023-07-20T01:17:38;9.77;;;4.23;;
19358;SDS011;9815;52.334;20.890;2023-07-20T01:20:07;10.63;;;4.10;;
19358;SDS011;9815;52.334;20.890;2023-07-20T01:22:46;7.93;;;3.57;;
19358;SDS011;9815;52.334;20.890;2023-07-20T01:25:34;8.77;;;4.40;;
19358;SDS011;9815;52.334;20.890;2023-07-20T01:28:20;10.47;;;4.10;;
19358;SDS011;9815;52.334;20.890;2023-07-20T01:31:16;7.43;;;4.00;;
19358;SDS011;9815;52.334;20.890;2023-07-20T01:33:48;5.90;;;3.83;;
19358;SDS011;9815;52.334;20.890;2023-07-20T01:36:19;7.07;;;3.70;;
19358;SDS011;9815;52.334;20.890;2023-07-20T01:38:51;10.93;;;4.00;;
19358;SDS011;9815;52.334;20.890;2023-07-20T01:41:20;6.03;;;3.73;;
19358;SDS011;9815;52.334;20.890;2023-07-20T01:43:48;7.27;;;3.33;;
19358;SDS011;9815;52.334;20.890;2023-07-20T01:46:18;4.83;;;3.43;;
19358;SDS011;9815;52.334;20.890;2023-07-20T01:48:47;5.43;;;3.50;;
19358;SDS011;9815;52.334;20.890;2023-07-20T01:51:15;8.20;;;3.50;;
19358;SDS011;9815;52.334;20.890;2023-07-20T01:53:44;5.87;;;3.23;;
19358;SDS011;9815;52.334;20.890;2023-07-20T01:56:13;7.50;;;3.40;;
19358;SDS011;9815;52.334;20.890;2023-07-20T01:58:42;5.53;;;3.43;;
19358;SDS011;9815;52.334;20.890;2023-07-20T02:01:10;7.73;;;3.40;;
19358;SDS011;9815;52.334;20.890;2023-07-20T02:03:40;5.50;;;3.30;;
19358;SDS011;9815;52.334;20.890;2023-07-20T02:06:08;6.20;;;3.43;;
19358;SDS011;9815;52.334;20.890;2023-07-20T02:08:36;7.07;;;3.47;;
19358;SDS011;9815;52.334;20.890;2023-07-20T02:11:05;5.80;;;3.47;;
19358;SDS011;9815;52.334;20.890;2023-07-20T02:13:33;10.50;;;3.63;;
19358;SDS011;9815;52.334;20.890;2023-07-20T02:16:02;5.70;;;3.70;;
19358;SDS011;9815;52.334;20.890;2023-07-20T02:18:31;6.53;;;3.33;;
19358;SDS011;9815;52.334;20.890;2023-07-20T02:21:03;7.90;;;4.17;;
19358;SDS011;9815;52.334;20.890;2023-07-20T02:23:31;9.03;;;3.60;;
19358;SDS011;9815;52.334;20.890;2023-07-20T02:26:00;6.73;;;3.53;;
19358;SDS011;9815;52.334;20.890;2023-07-20T02:28:29;8.33;;;4.13;;
19358;SDS011;9815;52.334;20.890;2023-07-20T02:30:58;6.23;;;4.03;;
19358;SDS011;9815;52.334;20.890;2023-07-20T02:33:27;5.17;;;3.60;;
19358;SDS011;9815;52.334;20.890;2023-07-20T02:35:55;7.47;;;3.37;;
19358;SDS011;9815;52.334;20.890;2023-07-20T02:38:25;9.53;;;3.80;;
19358;SDS011;9815;52.334;20.890;2023-07-20T02:40:53;8.47;;;4.00;;
19358;SDS011;9815;52.334;20.890;2023-07-20T02:43:21;5.33;;;3.63;;
19358;SDS011;9815;52.334;20.890;2023-07-20T02:45:50;6.70;;;3.50;;
19358;SDS011;9815;52.334;20.890;2023-07-20T02:48:18;7.27;;;3.90;;
19358;SDS011;9815;52.334;20.890;2023-07-20T02:50:47;8.27;;;4.13;;
19358;SDS011;9815;52.334;20.890;2023-07-20T02:53:15;7.07;;;3.70;;
19358;SDS011;9815;52.334;20.890;2023-07-20T02:55:45;8.73;;;4.00;;
19358;SDS011;9815;52.334;20.890;2023-07-20T02:58:13;10.27;;;4.10;;
19358;SDS011;9815;52.334;20.890;2023-07-20T03:00:42;6.63;;;3.70;;
19358;SDS011;9815;52.334;20.890;2023-07-20T03:03:10;7.00;;;4.20;;
19358;SDS011;9815;52.334;20.890;2023-07-20T03:05:40;7.07;;;3.97;;
19358;SDS011;9815;52.334;20.890;2023-07-20T03:08:08;6.63;;;3.80;;
19358;SDS011;9815;52.334;20.890;2023-07-20T03:10:40;7.53;;;4.37;;
19358;SDS011;9815;52.334;20.890;2023-07-20T03:13:10;7.93;;;4.53;;
19358;SDS011;9815;52.334;20.890;2023-07-20T03:15:39;8.67;;;4.43;;
19358;SDS011;9815;52.334;20.890;2023-07-20T03:18:08;9.17;;;4.40;;
19358;SDS011;9815;52.334;20.890;2023-07-20T03:20:36;8.87;;;4.17;;
19358;SDS011;9815;52.334;20.890;2023-07-20T03:23:05;8.00;;;4.23;;
19358;SDS011;9815;52.334;20.890;2023-07-20T03:25:34;10.93;;;4.20;;
19358;SDS011;9815;52.334;20.890;2023-07-20T03:28:04;8.50;;;4.80;;
19358;SDS011;9815;52.334;20.890;2023-07-20T03:30:33;10.20;;;4.70;;
19358;SDS011;9815;52.334;20.890;2023-07-20T03:33:02;8.53;;;4.50;;
19358;SDS011;9815;52.334;20.890;2023-07-20T03:35:31;10.27;;;4.60;;
19358;SDS011;9815;52.334;20.890;2023-07-20T03:37:59;6.93;;;4.53;;
19358;SDS011;9815;52.334;20.890;2023-07-20T03:40:28;7.47;;;4.70;;
19358;SDS011;9815;52.334;20.890;2023-07-20T03:42:56;9.43;;;4.50;;
19358;SDS011;9815;52.334;20.890;2023-07-20T03:45:24;7.63;;;4.47;;
19358;SDS011;9815;52.334;20.890;2023-07-20T03:47:54;8.30;;;5.03;;
19358;SDS011;9815;52.334;20.890;2023-07-20T03:50:23;13.70;;;5.10;;
19358;SDS011;9815;52.334;20.890;2023-07-20T03:52:51;7.83;;;4.47;;
19358;SDS011;9815;52.334;20.890;2023-07-20T03:55:19;8.80;;;5.13;;
19358;SDS011;9815;52.334;20.890;2023-07-20T03:57:48;8.23;;;5.17;;
19358;SDS011;9815;52.334;20.890;2023-07-20T04:00:17;7.93;;;5.33;;
19358;SDS011;9815;52.334;20.890;2023-07-20T04:02:46;8.93;;;5.20;;
19358;SDS011;9815;52.334;20.890;2023-07-20T04:05:15;9.77;;;5.10;;
19358;SDS011;9815;52.334;20.890;2023-07-20T04:07:44;8.77;;;5.63;;
19358;SDS011;9815;52.334;20.890;2023-07-20T04:10:12;10.77;;;5.50;;
19358;SDS011;9815;52.334;20.890;2023-07-20T04:12:40;8.67;;;5.13;;
19358;SDS011;9815;52.334;20.890;2023-07-20T04:15:10;10.33;;;5.40;;
19358;SDS011;9815;52.334;20.890;2023-07-20T04:17:39;8.80;;;5.43;;
19358;SDS011;9815;52.334;20.890;2023-07-20T04:20:08;15.73;;;5.80;;
19358;SDS011;9815;52.334;20.890;2023-07-20T04:22:38;9.63;;;5.60;;
19358;SDS011;9815;52.334;20.890;2023-07-20T04:25:10;9.93;;;5.63;;
19358;SDS011;9815;52.334;20.890;2023-07-20T04:27:38;10.30;;;5.87;;
19358;SDS011;9815;52.334;20.890;2023-07-20T04:30:07;10.47;;;5.63;;
19358;SDS011;9815;52.334;20.890;2023-07-20T04:32:37;10.70;;;6.17;;
19358;SDS011;9815;52.334;20.890;2023-07-20T04:35:11;9.87;;;6.37;;
19358;SDS011;9815;52.334;20.890;2023-07-20T04:37:48;13.87;;;6.57;;
19358;SDS011;9815;52.334;20.890;2023-07-20T04:40:19;10.43;;;6.60;;
19358;SDS011;9815;52.334;20.890;2023-07-20T04:42:48;10.43;;;6.80;;
19358;SDS011;9815;52.334;20.890;2023-07-20T04:45:17;10.30;;;6.77;;
19358;SDS011;9815;52.334;20.890;2023-07-20T04:47:45;12.40;;;6.23;;
19358;SDS011;9815;52.334;20.890;2023-07-20T04:50:14;9.57;;;6.67;;
19358;SDS011;9815;52.334;20.890;2023-07-20T04:52:43;8.43;;;6.70;;
19358;SDS011;9815;52.334;20.890;2023-07-20T04:55:17;12.80;;;7.30;;
19358;SDS011;9815;52.334;20.890;2023-07-20T04:57:46;11.50;;;7.20;;
19358;SDS011;9815;52.334;20.890;2023-07-20T05:00:15;9.80;;;7.33;;
19358;SDS011;9815;52.334;20.890;2023-07-20T05:02:44;14.17;;;7.60;;
19358;SDS011;9815;52.334;20.890;2023-07-20T05:05:14;11.67;;;7.60;;
19358;SDS011;9815;52.334;20.890;2023-07-20T05:07:43;13.30;;;7.60;;
19358;SDS011;9815;52.334;20.890;2023-07-20T05:10:12;11.37;;;7.13;;
19358;SDS011;9815;52.334;20.890;2023-07-20T05:12:42;15.10;;;7.87;;
19358;SDS011;9815;52.334;20.890;2023-07-20T05:15:10;10.27;;;6.80;;
19358;SDS011;9815;52.334;20.890;2023-07-20T05:17:40;12.43;;;6.60;;
19358;SDS011;9815;52.334;20.890;2023-07-20T05:20:09;13.80;;;6.83;;
19358;SDS011;9815;52.334;20.890;2023-07-20T05:22:39;10.90;;;6.77;;
19358;SDS011;9815;52.334;20.890;2023-07-20T05:25:08;11.67;;;7.60;;
19358;SDS011;9815;52.334;20.890;2023-07-20T05:27:37;9.93;;;6.70;;
19358;SDS011;9815;52.334;20.890;2023-07-20T05:30:08;11.90;;;6.90;;
19358;SDS011;9815;52.334;20.890;2023-07-20T05:32:37;11.40;;;6.83;;
19358;SDS011;9815;52.334;20.890;2023-07-20T05:35:06;10.37;;;6.90;;
19358;SDS011;9815;52.334;20.890;2023-07-20T05:37:37;12.90;;;7.00;;
19358;SDS011;9815;52.334;20.890;2023-07-20T05:40:06;11.17;;;7.27;;
19358;SDS011;9815;52.334;20.890;2023-07-20T05:42:37;11.00;;;6.63;;
19358;SDS011;9815;52.334;20.890;2023-07-20T05:45:05;9.83;;;6.70;;
19358;SDS011;9815;52.334;20.890;2023-07-20T05:47:36;11.57;;;6.83;;
19358;SDS011;9815;52.334;20.890;2023-07-20T05:50:04;11.80;;;6.53;;
19358;SDS011;9815;52.334;20.890;2023-07-20T05:52:33;13.60;;;7.50;;
19358;SDS011;9815;52.334;20.890;2023-07-20T05:55:02;10.43;;;6.67;;
19358;SDS011;9815;52.334;20.890;2023-07-20T05:57:31;11.50;;;7.00;;
19358;SDS011;9815;52.334;20.890;2023-07-20T05:59:59;13.00;;;7.40;;
19358;SDS011;9815;52.334;20.890;2023-07-20T06:02:38;14.57;;;7.87;;
19358;SDS011;9815;52.334;20.890;2023-07-20T06:05:07;12.57;;;7.50;;
19358;SDS011;9815;52.334;20.890;2023-07-20T06:07:37;11.37;;;7.70;;
19358;SDS011;9815;52.334;20.890;2023-07-20T06:10:06;17.33;;;7.77;;
19358;SDS011;9815;52.334;20.890;2023-07-20T06:12:34;13.03;;;6.90;;
19358;SDS011;9815;52.334;20.890;2023-07-20T06:15:03;11.93;;;7.00;;
19358;SDS011;9815;52.334;20.890;2023-07-20T06:17:33;13.17;;;7.90;;
19358;SDS011;9815;52.334;20.890;2023-07-20T06:20:06;10.57;;;7.20;;
19358;SDS011;9815;52.334;20.890;2023-07-20T06:22:35;12.33;;;7.87;;
19358;SDS011;9815;52.334;20.890;2023-07-20T06:25:04;13.60;;;7.40;;
19358;SDS011;9815;52.334;20.890;2023-07-20T06:27:33;12.83;;;7.47;;
19358;SDS011;9815;52.334;20.890;2023-07-20T06:30:01;15.00;;;7.37;;
19358;SDS011;9815;52.334;20.890;2023-07-20T06:32:30;9.93;;;6.53;;
19358;SDS011;9815;52.334;20.890;2023-07-20T06:34:59;14.23;;;7.23;;
19358;SDS011;9815;52.334;20.890;2023-07-20T06:37:28;13.27;;;7.37;;
19358;SDS011;9815;52.334;20.890;2023-07-20T06:39:56;13.27;;;6.70;;
19358;SDS011;9815;52.334;20.890;2023-07-20T06:42:28;14.80;;;6.73;;
19358;SDS011;9815;52.334;20.890;2023-07-20T06:45:16;10.73;;;6.70;;
19358;SDS011;9815;52.334;20.890;2023-07-20T06:47:44;9.63;;;6.40;;
19358;SDS011;9815;52.334;20.890;2023-07-20T06:50:13;11.93;;;6.70;;
19358;SDS011;9815;52.334;20.890;2023-07-20T06:52:45;10.67;;;6.63;;
19358;SDS011;9815;52.334;20.890;2023-07-20T06:55:14;11.70;;;6.80;;
19358;SDS011;9815;52.334;20.890;2023-07-20T06:57:49;12.10;;;6.50;;
19358;SDS011;9815;52.334;20.890;2023-07-20T07:00:19;9.77;;;6.70;;
19358;SDS011;9815;52.334;20.890;2023-07-20T07:02:47;11.03;;;7.00;;
19358;SDS011;9815;52.334;20.890;2023-07-20T07:05:16;10.77;;;6.97;;
19358;SDS011;9815;52.334;20.890;2023-07-20T07:07:48;13.03;;;7.17;;
19358;SDS011;9815;52.334;20.890;2023-07-20T07:10:16;12.07;;;7.33;;
19358;SDS011;9815;52.334;20.890;2023-07-20T07:12:45;10.33;;;6.73;;
19358;SDS011;9815;52.334;20.890;2023-07-20T07:15:14;12.13;;;7.03;;
19358;SDS011;9815;52.334;20.890;2023-07-20T07:17:43;9.33;;;7.10;;
19358;SDS011;9815;52.334;20.890;2023-07-20T07:20:11;11.23;;;7.10;;
19358;SDS011;9815;52.334;20.890;2023-07-20T07:22:46;11.77;;;6.90;;
19358;SDS011;9815;52.334;20.890;2023-07-20T07:25:19;11.10;;;6.67;;
19358;SDS011;9815;52.334;20.890;2023-07-20T07:27:49;13.60;;;6.97;;
19358;SDS011;9815;52.334;20.890;2023-07-20T07:30:22;9.60;;;7.30;;
19358;SDS011;9815;52.334;20.890;2023-07-20T07:32:50;10.97;;;7.37;;
19358;SDS011;9815;52.334;20.890;2023-07-20T07:35:18;11.77;;;7.00;;
19358;SDS011;9815;52.334;20.890;2023-07-20T07:37:48;10.87;;;7.30;;
19358;SDS011;9815;52.334;20.890;2023-07-20T07:40:32;10.87;;;8.00;;
19358;SDS011;9815;52.334;20.890;2023-07-20T07:43:00;14.13;;;7.73;;
19358;SDS011;9815;52.334;20.890;2023-07-20T07:45:28;15.57;;;9.13;;
19358;SDS011;9815;52.334;20.890;2023-07-20T07:47:58;13.50;;;8.87;;
19358;SDS011;9815;52.334;20.890;2023-07-20T07:50:28;16.73;;;9.20;;
19358;SDS011;9815;52.334;20.890;2023-07-20T07:52:58;14.13;;;9.10;;
19358;SDS011;9815;52.334;20.890;2023-07-20T07:55:26;13.27;;;10.03;;
19358;SDS011;9815;52.334;20.890;2023-07-20T07:57:54;16.50;;;9.27;;
19358;SDS011;9815;52.334;20.890;2023-07-20T08:00:23;13.97;;;9.53;;
19358;SDS011;9815;52.334;20.890;2023-07-20T08:02:51;15.93;;;9.43;;
19358;SDS011;9815;52.334;20.890;2023-07-20T08:05:20;15.93;;;10.03;;
19358;SDS011;9815;52.334;20.890;2023-07-20T08:07:48;16.23;;;10.27;;
19358;SDS011;9815;52.334;20.890;2023-07-20T08:10:18;15.97;;;9.40;;
19358;SDS011;9815;52.334;20.890;2023-07-20T08:12:46;14.30;;;9.40;;
19358;SDS011;9815;52.334;20.890;2023-07-20T08:15:15;13.73;;;9.37;;
19358;SDS011;9815;52.334;20.890;2023-07-20T08:17:43;15.70;;;10.10;;
19358;SDS011;9815;52.334;20.890;2023-07-20T08:20:12;17.00;;;9.80;;
19358;SDS011;9815;52.334;20.890;2023-07-20T08:22:42;15.43;;;10.70;;
19358;SDS011;9815;52.334;20.890;2023-07-20T08:25:13;14.93;;;8.77;;
19358;SDS011;9815;52.334;20.890;2023-07-20T08:27:43;12.73;;;9.23;;
19358;SDS011;9815;52.334;20.890;2023-07-20T08:30:12;13.77;;;8.83;;
19358;SDS011;9815;52.334;20.890;2023-07-20T08:32:41;13.57;;;8.53;;
19358;SDS011;9815;52.334;20.890;2023-07-20T08:35:09;11.80;;;8.10;;
19358;SDS011;9815;52.334;20.890;2023-07-20T08:37:41;11.73;;;7.50;;
19358;SDS011;9815;52.334;20.890;2023-07-20T08:40:10;8.57;;;5.53;;
19358;SDS011;9815;52.334;20.890;2023-07-20T08:42:39;9.67;;;6.73;;
19358;SDS011;9815;52.334;20.890;2023-07-20T08:45:10;9.17;;;6.43;;
19358;SDS011;9815;52.334;20.890;2023-07-20T08:47:41;11.43;;;7.20;;
19358;SDS011;9815;52.334;20.890;2023-07-20T08:50:11;10.23;;;6.70;;
19358;SDS011;9815;52.334;20.890;2023-07-20T08:52:41;9.43;;;5.53;;
19358;SDS011;9815;52.334;20.890;2023-07-20T08:55:09;6.90;;;5.50;;
19358;SDS011;9815;52.334;20.890;2023-07-20T08:57:38;10.00;;;5.53;;
19358;SDS011;9815;52.334;20.890;2023-07-20T09:00:10;6.83;;;4.43;;
19358;SDS011;9815;52.334;20.890;2023-07-20T09:02:41;9.10;;;4.20;;
19358;SDS011;9815;52.334;20.890;2023-07-20T09:05:10;9.63;;;4.23;;
19358;SDS011;9815;52.334;20.890;2023-07-20T09:07:42;6.23;;;4.60;;
19358;SDS011;9815;52.334;20.890;2023-07-20T09:10:13;7.53;;;4.50;;
19358;SDS011;9815;52.334;20.890;2023-07-20T09:12:42;8.03;;;4.77;;
19358;SDS011;9815;52.334;20.890;2023-07-20T09:15:12;5.80;;;4.00;;
19358;SDS011;9815;52.334;20.890;2023-07-20T09:17:44;6.63;;;4.07;;
19358;SDS011;9815;52.334;20.890;2023-07-20T09:20:14;5.67;;;3.80;;
19358;SDS011;9815;52.334;20.890;2023-07-20T09:22:47;5.73;;;3.30;;
19358;SDS011;9815;52.334;20.890;2023-07-20T09:25:17;5.70;;;3.20;;
19358;SDS011;9815;52.334;20.890;2023-07-20T09:27:48;6.40;;;3.40;;
19358;SDS011;9815;52.334;20.890;2023-07-20T09:30:19;4.60;;;3.20;;
19358;SDS011;9815;52.334;20.890;2023-07-20T09:32:56;4.57;;;3.43;;
19358;SDS011;9815;52.334;20.890;2023-07-20T09:35:25;6.20;;;3.30;;
19358;SDS011;9815;52.334;20.890;2023-07-20T09:38:07;4.23;;;2.80;;
19358;SDS011;9815;52.334;20.890;2023-07-20T09:40:39;10.13;;;3.30;;
19358;SDS011;9815;52.334;20.890;2023-07-20T09:43:11;6.10;;;3.50;;
19358;SDS011;9815;52.334;20.890;2023-07-20T09:45:43;5.90;;;3.37;;
19358;SDS011;9815;52.334;20.890;2023-07-20T09:48:14;6.77;;;3.23;;
19358;SDS011;9815;52.334;20.890;2023-07-20T09:50:48;5.33;;;3.33;;
19358;SDS011;9815;52.334;20.890;2023-07-20T09:53:18;4.93;;;3.40;;
19358;SDS011;9815;52.334;20.890;2023-07-20T09:55:47;6.67;;;3.20;;
19358;SDS011;9815;52.334;20.890;2023-07-20T09:58:16;4.93;;;3.20;;
19358;SDS011;9815;52.334;20.890;2023-07-20T10:00:47;3.90;;;2.70;;
19358;SDS011;9815;52.334;20.890;2023-07-20T10:03:20;5.23;;;3.00;;
19358;SDS011;9815;52.334;20.890;2023-07-20T10:05:51;5.93;;;3.00;;
19358;SDS011;9815;52.334;20.890;2023-07-20T10:08:24;4.57;;;3.20;;
19358;SDS011;9815;52.334;20.890;2023-07-20T10:10:57;4.03;;;3.23;;
19358;SDS011;9815;52.334;20.890;2023-07-20T10:13:27;5.23;;;3.17;;
19358;SDS011;9815;52.334;20.890;2023-07-20T10:16:01;7.13;;;3.83;;
19358;SDS011;9815;52.334;20.890;2023-07-20T10:18:31;5.77;;;4.10;;
19358;SDS011;9815;52.334;20.890;2023-07-20T10:21:09;4.43;;;3.53;;
19358;SDS011;9815;52.334;20.890;2023-07-20T10:23:41;5.13;;;3.50;;
19358;SDS011;9815;52.334;20.890;2023-07-20T10:26:09;5.50;;;3.73;;
19358;SDS011;9815;52.334;20.890;2023-07-20T10:28:38;7.80;;;3.50;;
19358;SDS011;9815;52.334;20.890;2023-07-20T10:31:09;5.43;;;3.27;;
19358;SDS011;9815;52.334;20.890;2023-07-20T10:33:39;4.80;;;3.07;;
19358;SDS011;9815;52.334;20.890;2023-07-20T10:36:09;5.90;;;4.20;;
19358;SDS011;9815;52.334;20.890;2023-07-20T10:38:52;5.57;;;2.70;;
19358;SDS011;9815;52.334;20.890;2023-07-20T10:41:21;3.23;;;2.30;;
19358;SDS011;9815;52.334;20.890;2023-07-20T10:43:57;4.00;;;2.60;;
19358;SDS011;9815;52.334;20.890;2023-07-20T10:46:41;4.67;;;2.77;;
19358;SDS011;9815;52.334;20.890;2023-07-20T10:49:12;3.67;;;2.60;;
19358;SDS011;9815;52.334;20.890;2023-07-20T10:51:42;5.00;;;2.30;;
19358;SDS011;9815;52.334;20.890;2023-07-20T10:59:50;3.93;;;2.30;;
19358;SDS011;9815;52.334;20.890;2023-07-20T11:02:19;2.53;;;1.93;;
19358;SDS011;9815;52.334;20.890;2023-07-20T11:04:48;3.77;;;1.93;;
19358;SDS011;9815;52.334;20.890;2023-07-20T11:07:17;2.67;;;1.90;;
19358;SDS011;9815;52.334;20.890;2023-07-20T11:10:12;2.07;;;1.60;;
19358;SDS011;9815;52.334;20.890;2023-07-20T11:15:47;3.97;;;2.00;;
19358;SDS011;9815;52.334;20.890;2023-07-20T11:18:30;3.37;;;1.97;;
19358;SDS011;9815;52.334;20.890;2023-07-20T11:21:00;2.57;;;2.37;;
19358;SDS011;9815;52.334;20.890;2023-07-20T11:23:28;3.47;;;2.30;;
19358;SDS011;9815;52.334;20.890;2023-07-20T11:25:59;2.87;;;2.20;;
19358;SDS011;9815;52.334;20.890;2023-07-20T11:28:29;4.43;;;2.30;;
19358;SDS011;9815;52.334;20.890;2023-07-20T11:30:58;4.83;;;2.80;;
19358;SDS011;9815;52.334;20.890;2023-07-20T11:33:26;4.37;;;2.17;;
19358;SDS011;9815;52.334;20.890;2023-07-20T11:35:56;4.87;;;2.40;;
19358;SDS011;9815;52.334;20.890;2023-07-20T11:38:24;4.07;;;2.20;;
19358;SDS011;9815;52.334;20.890;2023-07-20T11:40:55;2.40;;;2.10;;
19358;SDS011;9815;52.334;20.890;2023-07-20T11:43:25;3.90;;;2.43;;
19358;SDS011;9815;52.334;20.890;2023-07-20T11:45:53;2.23;;;2.03;;
19358;SDS011;9815;52.334;20.890;2023-07-20T11:48:22;2.87;;;2.20;;
19358;SDS011;9815;52.334;20.890;2023-07-20T11:50:51;6.93;;;2.70;;
19358;SDS011;9815;52.334;20.890;2023-07-20T11:53:20;3.97;;;2.57;;
19358;SDS011;9815;52.334;20.890;2023-07-20T11:55:49;3.50;;;2.20;;
19358;SDS011;9815;52.334;20.890;2023-07-20T11:58:17;2.50;;;2.07;;
19358;SDS011;9815;52.334;20.890;2023-07-20T12:00:46;3.37;;;2.20;;
19358;SDS011;9815;52.334;20.890;2023-07-20T12:03:15;3.20;;;2.30;;
19358;SDS011;9815;52.334;20.890;2023-07-20T12:05:43;4.00;;;2.10;;
19358;SDS011;9815;52.334;20.890;2023-07-20T12:08:27;4.07;;;2.20;;
19358;SDS011;9815;52.334;20.890;2023-07-20T12:10:56;2.53;;;2.20;;
19358;SDS011;9815;52.334;20.890;2023-07-20T12:13:34;3.20;;;2.10;;
19358;SDS011;9815;52.334;20.890;2023-07-20T12:16:08;2.47;;;1.90;;
19358;SDS011;9815;52.334;20.890;2023-07-20T12:18:38;2.87;;;1.93;;
19358;SDS011;9815;52.334;20.890;2023-07-20T12:21:06;3.80;;;2.00;;
19358;SDS011;9815;52.334;20.890;2023-07-20T12:23:37;4.67;;;1.90;;
19358;SDS011;9815;52.334;20.890;2023-07-20T12:26:06;3.20;;;2.00;;
19358;SDS011;9815;52.334;20.890;2023-07-20T12:28:38;3.33;;;2.33;;
19358;SDS011;9815;52.334;20.890;2023-07-20T12:31:08;4.57;;;2.00;;
19358;SDS011;9815;52.334;20.890;2023-07-20T12:33:37;4.33;;;2.20;;
19358;SDS011;9815;52.334;20.890;2023-07-20T12:36:05;2.63;;;2.10;;
19358;SDS011;9815;52.334;20.890;2023-07-20T12:38:34;2.40;;;2.00;;
19358;SDS011;9815;52.334;20.890;2023-07-20T12:41:03;2.97;;;2.13;;
19358;SDS011;9815;52.334;20.890;2023-07-20T12:43:32;2.43;;;2.13;;
19358;SDS011;9815;52.334;20.890;2023-07-20T12:46:00;5.90;;;2.60;;
19358;SDS011;9815;52.334;20.890;2023-07-20T12:48:29;2.93;;;2.10;;
19358;SDS011;9815;52.334;20.890;2023-07-20T12:50:57;3.77;;;2.37;;
19358;SDS011;9815;52.334;20.890;2023-07-20T12:53:26;3.03;;;2.30;;
19358;SDS011;9815;52.334;20.890;2023-07-20T12:55:54;6.20;;;2.53;;
19358;SDS011;9815;52.334;20.890;2023-07-20T12:58:24;4.17;;;2.20;;
19358;SDS011;9815;52.334;20.890;2023-07-20T13:00:53;2.20;;;2.00;;
19358;SDS011;9815;52.334;20.890;2023-07-20T13:03:21;2.50;;;2.00;;
19358;SDS011;9815;52.334;20.890;2023-07-20T13:05:52;2.60;;;1.80;;
19358;SDS011;9815;52.334;20.890;2023-07-20T13:08:24;3.37;;;2.10;;
19358;SDS011;9815;52.334;20.890;2023-07-20T13:10:55;5.63;;;2.07;;
19358;SDS011;9815;52.334;20.890;2023-07-20T13:13:24;3.07;;;2.03;;
19358;SDS011;9815;52.334;20.890;2023-07-20T13:15:53;3.47;;;2.00;;
19358;SDS011;9815;52.334;20.890;2023-07-20T13:18:24;2.00;;;1.80;;
19358;SDS011;9815;52.334;20.890;2023-07-20T13:20:52;3.53;;;2.00;;
19358;SDS011;9815;52.334;20.890;2023-07-20T13:23:21;4.10;;;2.10;;
19358;SDS011;9815;52.334;20.890;2023-07-20T13:25:49;3.33;;;2.00;;
19358;SDS011;9815;52.334;20.890;2023-07-20T13:28:17;2.20;;;1.80;;
19358;SDS011;9815;52.334;20.890;2023-07-20T13:30:47;2.27;;;1.77;;
19358;SDS011;9815;52.334;20.890;2023-07-20T13:33:16;2.27;;;1.63;;
19358;SDS011;9815;52.334;20.890;2023-07-20T13:35:45;3.70;;;1.97;;
19358;SDS011;9815;52.334;20.890;2023-07-20T13:38:15;4.03;;;2.30;;
19358;SDS011;9815;52.334;20.890;2023-07-20T13:40:44;3.10;;;1.87;;
19358;SDS011;9815;52.334;20.890;2023-07-20T13:43:13;3.77;;;2.00;;
19358;SDS011;9815;52.334;20.890;2023-07-20T13:45:42;2.83;;;2.03;;
19358;SDS011;9815;52.334;20.890;2023-07-20T13:48:12;3.00;;;2.20;;
19358;SDS011;9815;52.334;20.890;2023-07-20T13:50:43;6.87;;;2.10;;
19358;SDS011;9815;52.334;20.890;2023-07-20T13:53:26;4.13;;;2.40;;
19358;SDS011;9815;52.334;20.890;2023-07-20T13:55:58;5.67;;;2.30;;
19358;SDS011;9815;52.334;20.890;2023-07-20T13:58:32;4.83;;;2.23;;
19358;SDS011;9815;52.334;20.890;2023-07-20T14:01:00;4.60;;;2.60;;
19358;SDS011;9815;52.334;20.890;2023-07-20T14:03:30;3.63;;;2.60;;
19358;SDS011;9815;52.334;20.890;2023-07-20T14:05:59;3.60;;;2.77;;
19358;SDS011;9815;52.334;20.890;2023-07-20T14:08:30;7.00;;;2.40;;
19358;SDS011;9815;52.334;20.890;2023-07-20T14:11:03;7.23;;;2.57;;
19358;SDS011;9815;52.334;20.890;2023-07-20T14:13:35;4.40;;;2.67;;
19358;SDS011;9815;52.334;20.890;2023-07-20T14:16:13;3.00;;;2.50;;
19358;SDS011;9815;52.334;20.890;2023-07-20T14:18:43;5.27;;;2.80;;
19358;SDS011;9815;52.334;20.890;2023-07-20T14:21:15;3.67;;;2.60;;
19358;SDS011;9815;52.334;20.890;2023-07-20T14:23:44;4.83;;;2.70;;
19358;SDS011;9815;52.334;20.890;2023-07-20T14:26:13;4.47;;;2.83;;
19358;SDS011;9815;52.334;20.890;2023-07-20T14:28:41;4.80;;;2.40;;
19358;SDS011;9815;52.334;20.890;2023-07-20T14:31:10;4.57;;;2.73;;
19358;SDS011;9815;52.334;20.890;2023-07-20T14:33:38;5.07;;;2.80;;
19358;SDS011;9815;52.334;20.890;2023-07-20T14:36:09;5.50;;;2.80;;
19358;SDS011;9815;52.334;20.890;2023-07-20T14:38:37;2.77;;;2.17;;
19358;SDS011;9815;52.334;20.890;2023-07-20T14:41:08;3.37;;;1.90;;
19358;SDS011;9815;52.334;20.890;2023-07-20T14:43:38;4.03;;;2.20;;
19358;SDS011;9815;52.334;20.890;2023-07-20T14:46:06;3.13;;;1.73;;
19358;SDS011;9815;52.334;20.890;2023-07-20T14:48:34;3.87;;;1.73;;
19358;SDS011;9815;52.334;20.890;2023-07-20T14:51:04;2.23;;;1.40;;
19358;SDS011;9815;52.334;20.890;2023-07-20T14:53:33;1.37;;;1.07;;
19358;SDS011;9815;52.334;20.890;2023-07-20T14:56:02;1.70;;;1.17;;
19358;SDS011;9815;52.334;20.890;2023-07-20T14:58:31;0.90;;;0.70;;
19358;SDS011;9815;52.334;20.890;2023-07-20T15:01:01;2.83;;;1.10;;
19358;SDS011;9815;52.334;20.890;2023-07-20T15:03:31;1.40;;;0.80;;
19358;SDS011;9815;52.334;20.890;2023-07-20T15:05:59;2.30;;;0.90;;
19358;SDS011;9815;52.334;20.890;2023-07-20T15:08:28;1.53;;;0.90;;
19358;SDS011;9815;52.334;20.890;2023-07-20T15:10:59;2.60;;;0.90;;